Time;durP1;ratioP1;P1;durP2;ratioP2;P2;SDS_P1;SDS_P2;PMS_P1;PMS_P2;Temp;Humidity;BMP_temperature;BMP_pressure;BME280_temperature;BME280_humidity;BME280_pressure;Samples;Min_cycle;Max_cycle;Signal;HPM_P1;HPM_P2
2020/12/09 00:00:59;;;;;;;;;;;19.40;39.60;;;;;;491532;240;1097;-53
2020/12/09 00:03:00;;;;;;;;;;;19.40;39.60;;;;;;491537;240;1371;-54
2020/12/09 00:05:02;;;;;;;;;;;19.30;39.60;;;;;;491595;240;1057;-54
2020/12/09 00:07:03;;;;;;;;;;;19.30;39.70;;;;;;491540;240;1130;-54
2020/12/09 00:09:04;;;;;;;;;;;19.30;39.70;;;;;;491497;240;2199;-54
2020/12/09 00:11:06;;;;;;;;;;;19.30;39.80;;;;;;491480;240;1181;-53
2020/12/09 00:13:07;;;;;;;;;;;19.20;39.70;;;;;;491500;240;1115;-53
2020/12/09 00:15:08;;;;;;;;;;;19.20;39.80;;;;;;491680;240;1336;-54
2020/12/09 00:17:09;;;;;;;;;;;19.20;39.80;;;;;;491548;240;1175;-53
2020/12/09 00:19:11;;;;;;;;;;;19.20;39.80;;;;;;491781;240;1141;-54
2020/12/09 00:21:12;;;;;;;;;;;19.20;39.90;;;;;;491558;240;1298;-53
2020/12/09 00:23:13;;;;;;;;;;;19.10;39.90;;;;;;491674;240;1206;-54
2020/12/09 00:25:14;;;;;;;;;;;19.10;39.90;;;;;;491577;240;1198;-54
2020/12/09 00:27:16;;;;;;;;;;;19.10;40.00;;;;;;491555;240;1219;-54
2020/12/09 00:29:17;;;;;;;;;;;19.10;40.00;;;;;;491763;240;2180;-53
2020/12/09 00:31:18;;;;;;;;;;;19.10;40.00;;;;;;491520;240;1239;-53
2020/12/09 00:33:20;;;;;;;;;;;19.00;40.00;;;;;;491627;240;1266;-53
2020/12/09 00:35:21;;;;;;;;;;;19.00;40.00;;;;;;491613;240;1208;-53
2020/12/09 00:37:22;;;;;;;;;;;19.00;40.00;;;;;;491642;240;1173;-53
2020/12/09 00:39:23;;;;;;;;;;;19.00;40.10;;;;;;491587;240;1167;-53
2020/12/09 00:41:25;;;;;;;;;;;19.00;40.10;;;;;;491553;240;1227;-53
2020/12/09 00:43:26;;;;;;;;;;;19.00;40.20;;;;;;491585;240;1213;-54
2020/12/09 00:45:27;;;;;;;;;;;18.90;40.10;;;;;;491644;240;1299;-54
2020/12/09 00:47:29;;;;;;;;;;;19.00;40.20;;;;;;491548;240;1202;-53
2020/12/09 00:49:31;;;;;;;;;;;18.90;40.20;;;;;;491592;240;2188;-54
2020/12/09 00:51:31;;;;;;;;;;;18.90;40.10;;;;;;491502;240;2205;-54
2020/12/09 00:53:32;;;;;;;;;;;18.90;40.20;;;;;;491569;240;1177;-54
2020/12/09 00:55:34;;;;;;;;;;;18.90;40.20;;;;;;491557;240;1374;-53
2020/12/09 00:57:35;;;;;;;;;;;18.90;40.20;;;;;;491561;240;1117;-54
2020/12/09 00:59:36;;;;;;;;;;;18.90;40.20;;;;;;491649;240;1033;-53
2020/12/09 01:01:37;;;;;;;;;;;18.90;40.30;;;;;;491540;240;1479;-54
2020/12/09 01:03:39;;;;;;;;;;;18.80;40.30;;;;;;491644;240;1074;-53
2020/12/09 01:05:40;;;;;;;;;;;18.90;40.30;;;;;;491584;240;1610;-54
2020/12/09 01:07:41;;;;;;;;;;;18.80;40.30;;;;;;491622;240;1054;-54
2020/12/09 01:09:43;;;;;;;;;;;18.80;40.30;;;;;;491605;240;2188;-54
2020/12/09 01:11:44;;;;;;;;;;;18.80;40.30;;;;;;491565;240;1446;-53
2020/12/09 01:13:45;;;;;;;;;;;18.80;40.30;;;;;;491780;240;1142;-54
2020/12/09 01:15:46;;;;;;;;;;;18.80;40.30;;;;;;491581;240;1028;-54
2020/12/09 01:17:48;;;;;;;;;;;18.80;40.40;;;;;;491586;240;1234;-54
2020/12/09 01:19:49;;;;;;;;;;;18.80;40.30;;;;;;491593;240;1149;-54
2020/12/09 01:21:50;;;;;;;;;;;18.80;40.30;;;;;;491570;240;1322;-53
2020/12/09 01:23:51;;;;;;;;;;;18.80;40.40;;;;;;491622;240;1024;-53
2020/12/09 01:25:53;;;;;;;;;;;18.70;40.40;;;;;;491588;240;1223;-54
2020/12/09 01:27:55;;;;;;;;;;;18.70;40.40;;;;;;491749;240;2165;-54
2020/12/09 01:29:56;;;;;;;;;;;18.70;40.40;;;;;;491562;240;1341;-54
2020/12/09 01:31:57;;;;;;;;;;;18.70;39.10;;;;;;491547;240;1410;-53
2020/12/09 01:33:59;;;;;;;;;;;18.70;40.40;;;;;;491610;240;1212;-54
2020/12/09 01:36:00;;;;;;;;;;;18.70;40.40;;;;;;491596;240;1255;-54
2020/12/09 01:38:01;;;;;;;;;;;18.70;40.40;;;;;;491828;240;1058;-54
2020/12/09 01:40:02;;;;;;;;;;;18.70;40.40;;;;;;491611;240;1153;-54
2020/12/09 01:42:04;;;;;;;;;;;18.70;40.50;;;;;;491619;240;1175;-54
2020/12/09 01:44:05;;;;;;;;;;;18.70;40.50;;;;;;491663;240;1119;-54
2020/12/09 01:46:06;;;;;;;;;;;18.70;40.50;;;;;;491618;240;1196;-54
2020/12/09 01:48:08;;;;;;;;;;;18.60;40.40;;;;;;491583;240;2183;-54
2020/12/09 01:50:09;;;;;;;;;;;18.60;40.40;;;;;;491632;240;1067;-54
2020/12/09 01:52:10;;;;;;;;;;;18.60;40.50;;;;;;491829;240;1090;-53
2020/12/09 01:54:11;;;;;;;;;;;18.70;40.50;;;;;;491584;240;1054;-54
2020/12/09 01:56:13;;;;;;;;;;;18.60;40.50;;;;;;491539;240;1398;-54
2020/12/09 01:58:14;;;;;;;;;;;18.60;40.50;;;;;;491669;240;1040;-53
2020/12/09 02:00:15;;;;;;;;;;;18.60;40.50;;;;;;491643;240;1332;-54
2020/12/09 02:02:17;;;;;;;;;;;18.60;40.50;;;;;;491607;240;1271;-53
2020/12/09 02:04:18;;;;;;;;;;;18.60;40.50;;;;;;491769;240;1102;-54
2020/12/09 02:06:19;;;;;;;;;;;18.60;40.50;;;;;;491575;240;1225;-54
2020/12/09 02:08:20;;;;;;;;;;;18.60;40.50;;;;;;491593;240;2195;-53
2020/12/09 02:10:22;;;;;;;;;;;18.60;40.60;;;;;;491663;240;1304;-53
2020/12/09 02:12:23;;;;;;;;;;;18.50;40.50;;;;;;491718;240;1378;-54
2020/12/09 02:14:24;;;;;;;;;;;18.50;40.50;;;;;;491728;240;1012;-53
2020/12/09 02:16:26;;;;;;;;;;;18.50;40.50;;;;;;491571;240;1341;-54
2020/12/09 02:18:27;;;;;;;;;;;18.60;40.60;;;;;;491561;240;1305;-53
2020/12/09 02:20:28;;;;;;;;;;;18.60;40.60;;;;;;491589;240;1555;-54
2020/12/09 02:22:29;;;;;;;;;;;18.50;40.60;;;;;;491509;240;1181;-53
2020/12/09 02:24:31;;;;;;;;;;;18.50;40.60;;;;;;491616;240;1116;-53
2020/12/09 02:26:32;;;;;;;;;;;18.50;40.60;;;;;;491448;240;1182;-54
2020/12/09 02:28:33;;;;;;;;;;;18.50;40.60;;;;;;491583;240;2187;-54
2020/12/09 02:30:35;;;;;;;;;;;18.50;40.60;;;;;;491535;240;1348;-53
2020/12/09 02:32:36;;;;;;;;;;;18.50;40.60;;;;;;491755;240;1235;-53
2020/12/09 02:34:37;;;;;;;;;;;18.50;40.60;;;;;;491645;240;980;-54
2020/12/09 02:36:38;;;;;;;;;;;18.50;40.60;;;;;;491549;240;1284;-54
2020/12/09 02:38:40;;;;;;;;;;;18.50;40.60;;;;;;491934;240;1137;-53
2020/12/09 02:40:41;;;;;;;;;;;18.50;40.60;;;;;;491545;240;1190;-54
2020/12/09 02:42:42;;;;;;;;;;;18.50;39.30;;;;;;491626;240;1255;-54
2020/12/09 02:44:44;;;;;;;;;;;18.50;40.60;;;;;;491701;240;1231;-53
2020/12/09 02:46:45;;;;;;;;;;;18.50;40.60;;;;;;491665;240;1284;-54
2020/12/09 02:48:46;;;;;;;;;;;18.40;40.60;;;;;;491566;240;2196;-54
2020/12/09 02:50:47;;;;;;;;;;;18.50;40.60;;;;;;491574;240;1042;-53
2020/12/09 02:52:49;;;;;;;;;;;18.50;40.60;;;;;;491581;240;1124;-54
2020/12/09 02:54:50;;;;;;;;;;;18.50;40.60;;;;;;491651;240;1183;-53
2020/12/09 02:56:51;;;;;;;;;;;18.40;40.60;;;;;;491553;240;1207;-54
2020/12/09 02:58:52;;;;;;;;;;;18.40;40.60;;;;;;491593;240;1160;-54
2020/12/09 03:00:54;;;;;;;;;;;18.50;40.60;;;;;;491617;240;1045;-53
2020/12/09 03:02:55;;;;;;;;;;;18.40;40.60;;;;;;491563;240;1338;-53
2020/12/09 03:04:56;;;;;;;;;;;18.40;40.60;;;;;;491590;240;1070;-53
2020/12/09 03:06:58;;;;;;;;;;;18.40;40.60;;;;;;491597;240;1205;-53
2020/12/09 03:08:59;;;;;;;;;;;18.40;40.60;;;;;;491442;240;2192;-54
2020/12/09 03:11:00;;;;;;;;;;;18.40;40.60;;;;;;491528;240;1229;-54
2020/12/09 03:13:02;;;;;;;;;;;18.40;40.60;;;;;;491709;240;1522;-54
2020/12/09 03:15:03;;;;;;;;;;;18.40;40.60;;;;;;491526;240;1154;-53
2020/12/09 03:17:04;;;;;;;;;;;18.40;40.60;;;;;;491560;240;1292;-54
2020/12/09 03:19:06;;;;;;;;;;;18.40;40.60;;;;;;491580;240;1398;-53
2020/12/09 03:21:07;;;;;;;;;;;18.40;40.50;;;;;;491482;240;1551;-53
2020/12/09 03:23:08;;;;;;;;;;;18.40;40.50;;;;;;491561;240;1187;-54
2020/12/09 03:25:10;;;;;;;;;;;18.50;40.50;;;;;;491514;240;1300;-54
2020/12/09 03:27:11;;;;;;;;;;;18.50;40.40;;;;;;491586;240;1202;-54
2020/12/09 03:29:12;;;;;;;;;;;18.50;40.40;;;;;;491727;240;2244;-53
2020/12/09 03:31:13;;;;;;;;;;;18.50;40.30;;;;;;491635;240;1288;-54
2020/12/09 03:33:15;;;;;;;;;;;18.50;40.30;;;;;;491543;240;1497;-54
2020/12/09 03:35:16;;;;;;;;;;;18.60;40.30;;;;;;491457;240;1221;-54
2020/12/09 03:37:17;;;;;;;;;;;18.60;40.30;;;;;;491523;240;1270;-54
2020/12/09 03:39:20;;;;;;;;;;;18.60;40.20;;;;;;491631;240;1162;-54
2020/12/09 03:41:22;;;;;;;;;;;18.60;40.20;;;;;;491623;240;1497;-53
2020/12/09 03:43:23;;;;;;;;;;;18.70;40.20;;;;;;491601;240;1163;-54
2020/12/09 03:45:24;;;;;;;;;;;18.70;40.20;;;;;;491640;240;1158;-53
2020/12/09 03:47:25;;;;;;;;;;;18.70;40.10;;;;;;491691;240;1303;-54
2020/12/09 03:49:27;;;;;;;;;;;18.70;40.10;;;;;;491538;240;2196;-53
2020/12/09 03:51:28;;;;;;;;;;;18.70;40.00;;;;;;491489;240;1219;-54
2020/12/09 03:53:32;;;;;;;;;;;18.70;40.00;;;;;;491636;240;1222;-54
2020/12/09 03:55:30;;;;;;;;;;;18.80;40.10;;;;;;491723;240;2348;-54
2020/12/09 03:57:32;;;;;;;;;;;18.80;40.00;;;;;;491531;240;1235;-54
2020/12/09 03:59:33;;;;;;;;;;;18.80;40.00;;;;;;491638;240;1169;-54
2020/12/09 04:01:34;;;;;;;;;;;18.80;39.90;;;;;;491588;240;1569;-54
2020/12/09 04:03:36;;;;;;;;;;;18.80;39.90;;;;;;491606;240;1224;-53
2020/12/09 04:05:37;;;;;;;;;;;18.80;39.80;;;;;;491634;240;1297;-54
2020/12/09 04:07:38;;;;;;;;;;;18.80;39.80;;;;;;491671;240;1333;-54
2020/12/09 04:09:39;;;;;;;;;;;18.90;39.80;;;;;;491626;240;2172;-54
2020/12/09 04:11:41;;;;;;;;;;;18.90;39.80;;;;;;491585;240;1174;-54
2020/12/09 04:13:42;;;;;;;;;;;18.90;39.80;;;;;;491629;240;1562;-54
2020/12/09 04:15:43;;;;;;;;;;;18.90;39.70;;;;;;491513;240;1073;-54
2020/12/09 04:17:45;;;;;;;;;;;18.90;39.70;;;;;;491607;240;1350;-54
2020/12/09 04:19:46;;;;;;;;;;;18.90;39.70;;;;;;491593;240;1114;-54
2020/12/09 04:21:47;;;;;;;;;;;19.00;39.70;;;;;;491621;240;1067;-54
2020/12/09 04:23:48;;;;;;;;;;;19.00;39.70;;;;;;491618;240;1354;-54
2020/12/09 04:25:50;;;;;;;;;;;19.00;39.70;;;;;;491631;240;1121;-53
2020/12/09 04:27:51;;;;;;;;;;;19.00;39.60;;;;;;491623;240;1174;-54
2020/12/09 04:29:52;;;;;;;;;;;19.00;39.60;;;;;;491716;240;2176;-53
2020/12/09 04:31:53;;;;;;;;;;;19.00;39.60;;;;;;491724;240;1324;-54
2020/12/09 04:33:55;;;;;;;;;;;19.00;39.50;;;;;;491627;240;1057;-54
2020/12/09 04:35:56;;;;;;;;;;;19.10;39.60;;;;;;491568;240;1155;-54
2020/12/09 04:37:57;;;;;;;;;;;19.10;39.50;;;;;;491587;240;1213;-54
2020/12/09 04:39:59;;;;;;;;;;;19.10;39.50;;;;;;491615;240;1152;-54
2020/12/09 04:42:00;;;;;;;;;;;19.10;39.50;;;;;;491732;240;1219;-54
2020/12/09 04:44:01;;;;;;;;;;;19.10;39.50;;;;;;491830;240;1252;-54
2020/12/09 04:46:02;;;;;;;;;;;19.10;39.50;;;;;;491547;240;1283;-54
2020/12/09 04:48:04;;;;;;;;;;;19.20;39.50;;;;;;491578;240;1039;-54
2020/12/09 04:50:05;;;;;;;;;;;19.10;39.40;;;;;;491682;240;2179;-53
2020/12/09 04:52:06;;;;;;;;;;;19.20;39.50;;;;;;491578;240;1502;-54
2020/12/09 04:54:08;;;;;;;;;;;19.20;39.40;;;;;;491593;240;1357;-54
2020/12/09 04:56:09;;;;;;;;;;;19.20;39.40;;;;;;491617;240;1106;-54
2020/12/09 04:58:10;;;;;;;;;;;19.20;39.40;;;;;;491662;240;1193;-54
2020/12/09 05:00:11;;;;;;;;;;;19.20;39.40;;;;;;491578;240;1225;-54
2020/12/09 05:02:13;;;;;;;;;;;19.20;39.40;;;;;;491656;240;1540;-54
2020/12/09 05:04:14;;;;;;;;;;;19.30;39.40;;;;;;491658;240;1330;-54
2020/12/09 05:06:15;;;;;;;;;;;19.30;39.40;;;;;;491573;240;1071;-54
2020/12/09 05:08:17;;;;;;;;;;;19.30;39.40;;;;;;491522;240;1073;-54
2020/12/09 05:10:18;;;;;;;;;;;19.30;39.30;;;;;;491591;240;2191;-54
2020/12/09 05:12:21;;;;;;;;;;;19.30;39.30;;;;;;491558;240;1367;-54
2020/12/09 05:14:20;;;;;;;;;;;19.30;39.30;;;;;;491314;242;1363;-54
2020/12/09 05:16:22;;;;;;;;;;;19.30;39.30;;;;;;491583;240;1138;-54
2020/12/09 05:18:23;;;;;;;;;;;19.30;39.20;;;;;;491627;240;1013;-54
2020/12/09 05:20:24;;;;;;;;;;;19.40;39.30;;;;;;491607;240;1224;-54
2020/12/09 05:22:25;;;;;;;;;;;19.30;39.20;;;;;;491758;240;1040;-54
2020/12/09 05:24:27;;;;;;;;;;;19.40;39.20;;;;;;491548;240;1194;-54
2020/12/09 05:26:28;;;;;;;;;;;19.40;39.30;;;;;;491524;240;1095;-54
2020/12/09 05:28:29;;;;;;;;;;;19.40;39.20;;;;;;491495;240;1128;-54
2020/12/09 05:30:31;;;;;;;;;;;19.40;39.20;;;;;;491468;240;2167;-53
2020/12/09 05:32:32;;;;;;;;;;;19.40;39.20;;;;;;491475;240;1256;-54
2020/12/09 05:34:33;;;;;;;;;;;19.40;39.10;;;;;;491450;240;1114;-53
2020/12/09 05:36:34;;;;;;;;;;;19.40;39.10;;;;;;491423;240;1249;-54
2020/12/09 05:38:36;;;;;;;;;;;19.40;39.10;;;;;;491361;240;1062;-54
2020/12/09 05:40:37;;;;;;;;;;;19.40;37.80;;;;;;491367;240;1331;-54
2020/12/09 05:42:38;;;;;;;;;;;19.40;39.10;;;;;;491457;240;1176;-54
2020/12/09 05:44:39;;;;;;;;;;;19.40;39.10;;;;;;491543;240;1050;-54
2020/12/09 05:46:41;;;;;;;;;;;19.50;39.10;;;;;;491121;240;1292;-54
2020/12/09 05:48:42;;;;;;;;;;;19.50;39.10;;;;;;491486;240;1047;-54
2020/12/09 05:50:43;;;;;;;;;;;19.50;39.10;;;;;;491367;240;2188;-54
2020/12/09 05:52:45;;;;;;;;;;;19.50;39.10;;;;;;491381;240;1215;-53
2020/12/09 05:54:46;;;;;;;;;;;19.50;39.10;;;;;;491280;240;1154;-54
2020/12/09 05:56:47;;;;;;;;;;;19.50;37.70;;;;;;491044;240;1177;-54
2020/12/09 05:58:48;;;;;;;;;;;19.50;39.00;;;;;;491491;240;1181;-53
2020/12/09 06:00:50;;;;;;;;;;;19.50;39.00;;;;;;491399;240;1274;-53
2020/12/09 06:02:51;;;;;;;;;;;19.50;39.00;;;;;;491414;240;1092;-54
2020/12/09 06:04:52;;;;;;;;;;;19.50;39.00;;;;;;491426;240;1268;-54
2020/12/09 06:06:54;;;;;;;;;;;19.60;39.00;;;;;;491400;240;1164;-54
2020/12/09 06:08:55;;;;;;;;;;;19.60;39.00;;;;;;491417;240;1166;-54
2020/12/09 06:10:56;;;;;;;;;;;19.60;39.00;;;;;;491417;240;2187;-54
2020/12/09 06:12:57;;;;;;;;;;;19.60;39.00;;;;;;491355;240;1230;-54
2020/12/09 06:14:59;;;;;;;;;;;19.60;39.00;;;;;;491393;240;1276;-53
2020/12/09 06:17:00;;;;;;;;;;;19.60;39.00;;;;;;491414;240;1199;-54
2020/12/09 06:19:01;;;;;;;;;;;19.60;39.00;;;;;;491422;240;1153;-54
2020/12/09 06:21:02;;;;;;;;;;;19.60;38.90;;;;;;491087;240;1292;-54
2020/12/09 06:23:04;;;;;;;;;;;19.60;38.90;;;;;;491237;240;1248;-54
2020/12/09 06:25:05;;;;;;;;;;;19.60;38.90;;;;;;491255;240;1277;-54
2020/12/09 06:27:06;;;;;;;;;;;19.60;38.90;;;;;;491293;240;1173;-54
2020/12/09 06:29:08;;;;;;;;;;;19.60;38.90;;;;;;491409;240;1228;-54
2020/12/09 06:31:09;;;;;;;;;;;19.60;38.80;;;;;;491264;240;2877;-53
2020/12/09 06:33:10;;;;;;;;;;;19.60;38.80;;;;;;491396;240;1062;-54
2020/12/09 06:35:12;;;;;;;;;;;19.60;38.90;;;;;;491266;240;1354;-54
2020/12/09 06:37:13;;;;;;;;;;;19.70;38.90;;;;;;491404;240;1145;-54
2020/12/09 06:39:15;;;;;;;;;;;19.60;38.80;;;;;;491339;240;1064;-54
2020/12/09 06:41:16;;;;;;;;;;;19.70;38.90;;;;;;491054;240;1614;-54
2020/12/09 06:43:18;;;;;;;;;;;19.70;38.90;;;;;;491153;240;1159;-54
2020/12/09 06:45:19;;;;;;;;;;;19.70;38.80;;;;;;491205;240;1398;-54
2020/12/09 06:47:20;;;;;;;;;;;19.70;38.90;;;;;;491206;240;1231;-54
2020/12/09 06:49:21;;;;;;;;;;;19.70;38.80;;;;;;491308;240;1094;-54
2020/12/09 06:51:23;;;;;;;;;;;19.70;38.80;;;;;;491228;240;2867;-54
2020/12/09 06:56:14;;;;;;;;;;;19.70;38.80;;;;;;490892;242;2315;-54
2020/12/09 06:58:15;;;;;;;;;;;19.70;38.80;;;;;;491078;240;1147;-53
2020/12/09 07:00:17;;;;;;;;;;;19.70;38.80;;;;;;491222;240;1148;-53
2020/12/09 07:02:18;;;;;;;;;;;19.70;38.80;;;;;;491204;240;1055;-54
2020/12/09 07:07:12;;;;;;;;;;;19.80;38.80;;;;;;491072;242;2369;-54
2020/12/09 07:09:14;;;;;;;;;;;19.80;38.80;;;;;;490973;240;1216;-54
2020/12/09 07:11:15;;;;;;;;;;;19.80;38.80;;;;;;491193;240;2176;-54
2020/12/09 07:13:17;;;;;;;;;;;19.80;38.80;;;;;;491140;240;1164;-54
2020/12/09 07:15:18;;;;;;;;;;;19.80;38.80;;;;;;491204;240;2373;-53
2020/12/09 07:17:19;;;;;;;;;;;19.80;38.80;;;;;;490945;240;1208;-53
2020/12/09 07:19:20;;;;;;;;;;;19.80;38.80;;;;;;491108;240;1102;-54
2020/12/09 07:21:22;;;;;;;;;;;19.80;38.70;;;;;;491122;240;1186;-54
2020/12/09 07:23:23;;;;;;;;;;;19.80;38.70;;;;;;491141;240;1065;-54
2020/12/09 07:25:24;;;;;;;;;;;19.80;38.70;;;;;;490926;240;1089;-54
2020/12/09 07:27:27;;;;;;;;;;;19.80;38.70;;;;;;490852;240;1198;-53
2020/12/09 07:29:27;;;;;;;;;;;19.80;38.70;;;;;;490949;241;2197;-53
2020/12/09 07:31:29;;;;;;;;;;;19.80;38.70;;;;;;490896;240;2200;-53
2020/12/09 07:33:29;;;;;;;;;;;19.80;38.70;;;;;;491106;241;1623;-53
2020/12/09 07:35:31;;;;;;;;;;;19.80;38.70;;;;;;490945;240;1147;-53
2020/12/09 07:37:33;;;;;;;;;;;19.80;38.70;;;;;;490873;240;1311;-54
2020/12/09 07:39:33;;;;;;;;;;;19.90;38.70;;;;;;490957;242;2380;-54
2020/12/09 07:41:35;;;;;;;;;;;19.80;38.70;;;;;;490924;240;1220;-54
2020/12/09 07:43:36;;;;;;;;;;;19.90;38.70;;;;;;491056;240;1224;-53
2020/12/09 07:45:37;;;;;;;;;;;19.90;38.70;;;;;;490839;240;1241;-53
2020/12/09 07:47:38;;;;;;;;;;;19.90;38.70;;;;;;490815;240;1150;-54
2020/12/09 07:49:40;;;;;;;;;;;19.90;38.70;;;;;;490845;240;1097;-54
2020/12/09 07:51:41;;;;;;;;;;;19.90;38.70;;;;;;490990;240;2172;-54
2020/12/09 07:53:42;;;;;;;;;;;19.90;38.60;;;;;;491138;240;1093;-53
2020/12/09 07:55:44;;;;;;;;;;;19.90;38.70;;;;;;491036;240;1329;-53
2020/12/09 07:57:45;;;;;;;;;;;19.90;38.60;;;;;;490979;240;1088;-54
2020/12/09 07:59:46;;;;;;;;;;;19.90;38.60;;;;;;491007;240;1228;-53
2020/12/09 08:01:48;;;;;;;;;;;19.90;38.60;;;;;;491018;240;1191;-53
2020/12/09 08:03:50;;;;;;;;;;;19.90;38.60;;;;;;491008;240;1248;-54
2020/12/09 08:05:50;;;;;;;;;;;19.90;38.60;;;;;;490892;240;2141;-54
2020/12/09 08:07:52;;;;;;;;;;;19.90;38.60;;;;;;490862;240;1129;-53
2020/12/09 08:09:53;;;;;;;;;;;20.00;38.60;;;;;;490750;240;1065;-54
2020/12/09 08:11:54;;;;;;;;;;;19.90;38.60;;;;;;490860;240;2199;-54
2020/12/09 08:13:55;;;;;;;;;;;19.90;38.60;;;;;;491052;240;1184;-53
2020/12/09 08:15:57;;;;;;;;;;;19.90;38.60;;;;;;490850;240;1296;-54
2020/12/09 08:17:58;;;;;;;;;;;19.90;38.60;;;;;;490863;240;1110;-54
2020/12/09 08:19:59;;;;;;;;;;;20.00;38.60;;;;;;490855;240;1133;-54
2020/12/09 08:22:00;;;;;;;;;;;20.00;38.60;;;;;;491029;240;1284;-53
2020/12/09 08:24:02;;;;;;;;;;;19.90;38.60;;;;;;490909;240;1088;-54
2020/12/09 08:26:03;;;;;;;;;;;19.90;38.60;;;;;;490890;240;1312;-54
2020/12/09 08:28:04;;;;;;;;;;;20.00;37.30;;;;;;490910;240;1068;-54
2020/12/09 08:30:06;;;;;;;;;;;19.90;37.20;;;;;;490844;240;1353;-53
2020/12/09 08:32:10;;;;;;;;;;;20.00;38.60;;;;;;490952;240;2179;-53
2020/12/09 08:34:08;;;;;;;;;;;20.00;38.60;;;;;;490902;241;2314;-54
2020/12/09 08:36:09;;;;;;;;;;;20.00;38.60;;;;;;490751;240;1308;-53
2020/12/09 08:38:12;;;;;;;;;;;19.90;38.50;;;;;;490777;240;1088;-54
2020/12/09 08:40:12;;;;;;;;;;;20.00;37.30;;;;;;490882;240;2074;-53
2020/12/09 08:42:13;;;;;;;;;;;20.00;38.60;;;;;;490607;240;1188;-53
2020/12/09 08:44:15;;;;;;;;;;;20.00;38.80;;;;;;490780;240;1120;-54
2020/12/09 08:46:16;;;;;;;;;;;20.10;38.60;;;;;;490676;240;1086;-53
2020/12/09 08:48:19;;;;;;;;;;;20.10;38.50;;;;;;490634;240;1066;-53
2020/12/09 08:50:20;;;;;;;;;;;20.10;38.40;;;;;;490704;240;2212;-52
2020/12/09 08:52:27;;;;;;;;;;;20.10;37.20;;;;;;490720;241;1276;-53
2020/12/09 08:54:23;;;;;;;;;;;20.10;38.50;;;;;;490703;242;2227;-53
2020/12/09 08:56:24;;;;;;;;;;;20.10;38.60;;;;;;490736;240;1211;-53
2020/12/09 08:58:25;;;;;;;;;;;20.00;38.60;;;;;;490693;240;1196;-53
2020/12/09 09:00:26;;;;;;;;;;;20.00;38.70;;;;;;490829;240;1226;-53
2020/12/09 09:02:28;;;;;;;;;;;19.90;38.80;;;;;;491070;240;1240;-53
2020/12/09 09:04:33;;;;;;;;;;;19.90;38.80;;;;;;490903;240;1206;-53
2020/12/09 09:06:32;;;;;;;;;;;19.80;38.90;;;;;;491549;241;1447;-54
2020/12/09 09:08:33;;;;;;;;;;;19.80;39.00;;;;;;491614;240;1036;-53
2020/12/09 09:10:34;;;;;;;;;;;19.80;39.10;;;;;;491248;240;2180;-53
2020/12/09 09:12:36;;;;;;;;;;;19.70;39.10;;;;;;490661;240;1226;-53
2020/12/09 09:14:37;;;;;;;;;;;19.70;39.20;;;;;;490747;240;1259;-53
2020/12/09 09:16:38;;;;;;;;;;;19.70;39.20;;;;;;490913;240;1118;-53
2020/12/09 09:18:39;;;;;;;;;;;19.60;39.20;;;;;;490900;240;1257;-53
2020/12/09 09:20:41;;;;;;;;;;;19.60;39.30;;;;;;490978;240;1061;-52
2020/12/09 09:22:42;;;;;;;;;;;19.60;39.40;;;;;;490873;240;1212;-53
2020/12/09 09:24:43;;;;;;;;;;;19.50;39.40;;;;;;490873;240;1124;-53
2020/12/09 09:26:45;;;;;;;;;;;19.50;39.40;;;;;;490688;240;1232;-53
2020/12/09 09:28:46;;;;;;;;;;;19.50;39.50;;;;;;490776;240;1102;-52
2020/12/09 09:30:47;;;;;;;;;;;19.40;39.50;;;;;;490837;240;2183;-53
2020/12/09 09:32:48;;;;;;;;;;;19.40;39.60;;;;;;490722;240;1146;-53
2020/12/09 09:34:50;;;;;;;;;;;19.40;39.60;;;;;;490751;240;1380;-53
2020/12/09 09:36:51;;;;;;;;;;;19.40;39.60;;;;;;490746;240;1316;-53
2020/12/09 09:38:53;;;;;;;;;;;19.30;39.70;;;;;;491065;240;1270;-53
2020/12/09 09:40:54;;;;;;;;;;;19.30;38.40;;;;;;490741;240;1236;-52
2020/12/09 09:42:55;;;;;;;;;;;19.30;39.80;;;;;;490797;240;1241;-53
2020/12/09 09:44:56;;;;;;;;;;;19.30;38.50;;;;;;490868;240;1184;-54
2020/12/09 09:46:58;;;;;;;;;;;19.30;39.90;;;;;;490918;240;1272;-53
2020/12/09 09:48:59;;;;;;;;;;;19.20;39.80;;;;;;490901;240;1416;-53
2020/12/09 09:51:00;;;;;;;;;;;19.20;39.90;;;;;;490745;240;2196;-53
2020/12/09 09:53:02;;;;;;;;;;;19.20;39.90;;;;;;490708;240;1288;-53
2020/12/09 09:55:03;;;;;;;;;;;19.20;39.90;;;;;;490752;240;1191;-53
2020/12/09 09:57:04;;;;;;;;;;;19.20;40.00;;;;;;490503;240;1275;-53
2020/12/09 09:59:05;;;;;;;;;;;19.20;40.00;;;;;;490523;240;1186;-53
2020/12/09 10:01:07;;;;;;;;;;;19.10;40.00;;;;;;490835;240;1197;-53
2020/12/09 10:03:08;;;;;;;;;;;19.10;40.00;;;;;;490856;240;1148;-53
2020/12/09 10:05:09;;;;;;;;;;;19.10;40.00;;;;;;490861;240;1190;-53
2020/12/09 10:07:10;;;;;;;;;;;19.10;40.10;;;;;;490659;240;1202;-53
2020/12/09 10:09:12;;;;;;;;;;;19.10;40.10;;;;;;490731;240;1085;-53
2020/12/09 10:11:15;;;;;;;;;;;19.10;40.10;;;;;;490865;240;2193;-53
2020/12/09 10:13:15;;;;;;;;;;;19.00;40.10;;;;;;490815;242;2468;-53
2020/12/09 10:15:16;;;;;;;;;;;19.00;40.10;;;;;;490895;240;1204;-53
2020/12/09 10:17:17;;;;;;;;;;;19.00;40.10;;;;;;490838;240;1158;-53
2020/12/09 10:19:18;;;;;;;;;;;19.00;40.20;;;;;;490874;240;1264;-53
2020/12/09 10:21:20;;;;;;;;;;;19.00;40.20;;;;;;490714;240;1230;-53
2020/12/09 10:23:21;;;;;;;;;;;19.00;40.20;;;;;;490762;240;1112;-53
2020/12/09 10:25:24;;;;;;;;;;;18.90;40.20;;;;;;490728;240;1210;-53
2020/12/09 10:27:24;;;;;;;;;;;18.90;40.20;;;;;;490896;241;1542;-53
2020/12/09 10:29:25;;;;;;;;;;;19.00;40.30;;;;;;490662;241;1238;-53
2020/12/09 10:31:26;;;;;;;;;;;18.90;40.20;;;;;;490808;240;2182;-53
2020/12/09 10:33:28;;;;;;;;;;;18.90;40.30;;;;;;490617;240;1395;-53
2020/12/09 10:35:29;;;;;;;;;;;18.90;40.30;;;;;;490585;240;1288;-53
2020/12/09 10:37:30;;;;;;;;;;;18.90;40.30;;;;;;491188;240;1157;-53
2020/12/09 10:39:31;;;;;;;;;;;18.90;40.30;;;;;;490571;240;1142;-53
2020/12/09 10:41:33;;;;;;;;;;;18.90;40.30;;;;;;490823;240;1141;-53
2020/12/09 10:43:34;;;;;;;;;;;18.90;40.30;;;;;;490864;240;1117;-53
2020/12/09 10:45:35;;;;;;;;;;;18.80;40.30;;;;;;490820;240;1206;-53
2020/12/09 10:47:36;;;;;;;;;;;18.80;40.30;;;;;;490854;240;1270;-53
2020/12/09 10:49:43;;;;;;;;;;;18.80;40.30;;;;;;490745;240;1099;-53
2020/12/09 10:51:39;;;;;;;;;;;18.80;39.10;;;;;;490451;242;2192;-53
2020/12/09 10:53:40;;;;;;;;;;;18.80;39.10;;;;;;490698;240;1117;-54
2020/12/09 10:55:42;;;;;;;;;;;18.80;40.40;;;;;;490727;240;1274;-53
2020/12/09 10:57:43;;;;;;;;;;;18.80;40.40;;;;;;490722;240;1221;-54
2020/12/09 10:59:44;;;;;;;;;;;18.80;40.40;;;;;;490695;240;1116;-53
2020/12/09 11:01:46;;;;;;;;;;;18.80;40.40;;;;;;490601;240;1257;-53
2020/12/09 11:03:47;;;;;;;;;;;18.80;40.40;;;;;;490882;240;1288;-53
2020/12/09 11:05:48;;;;;;;;;;;18.80;40.40;;;;;;491015;240;1220;-54
2020/12/09 11:07:49;;;;;;;;;;;18.70;40.40;;;;;;490831;240;1138;-53
2020/12/09 11:09:51;;;;;;;;;;;18.70;40.40;;;;;;490796;240;1271;-53
2020/12/09 11:11:52;;;;;;;;;;;18.70;40.40;;;;;;490711;240;2192;-54
2020/12/09 11:13:53;;;;;;;;;;;18.70;40.50;;;;;;490846;240;1133;-53
2020/12/09 11:15:54;;;;;;;;;;;18.70;40.50;;;;;;490854;240;1222;-53
2020/12/09 11:17:56;;;;;;;;;;;18.70;40.50;;;;;;490849;240;1122;-53
2020/12/09 11:20:06;;;;;;;;;;;18.70;40.50;;;;;;490877;240;1331;-54
2020/12/09 11:22:07;;;;;;;;;;;18.70;40.60;;;;;;490922;240;1100;-54
2020/12/09 11:24:09;;;;;;;;;;;18.70;40.70;;;;;;490799;240;1100;-53
2020/12/09 11:26:10;;;;;;;;;;;18.70;40.80;;;;;;490834;240;1266;-54
2020/12/09 11:28:13;;;;;;;;;;;18.60;40.80;;;;;;490839;240;1099;-53
2020/12/09 11:30:12;;;;;;;;;;;18.60;39.50;;;;;;490784;240;2154;-54
2020/12/09 11:32:14;;;;;;;;;;;18.70;40.90;;;;;;490852;240;2184;-53
2020/12/09 11:34:16;;;;;;;;;;;18.60;39.50;;;;;;490969;240;1107;-53
2020/12/09 11:36:17;;;;;;;;;;;18.70;40.90;;;;;;490821;240;1338;-53
2020/12/09 11:38:18;;;;;;;;;;;18.60;40.80;;;;;;490778;240;1205;-54
2020/12/09 11:40:23;;;;;;;;;;;18.60;40.80;;;;;;490819;240;1059;-54
2020/12/09 11:42:21;;;;;;;;;;;18.60;40.80;;;;;;490777;241;2280;-54
2020/12/09 11:44:22;;;;;;;;;;;18.70;40.90;;;;;;490811;240;1249;-53
2020/12/09 11:46:23;;;;;;;;;;;18.60;40.80;;;;;;490905;240;1279;-54
2020/12/09 11:48:25;;;;;;;;;;;18.60;40.80;;;;;;490948;240;1217;-53
2020/12/09 11:50:26;;;;;;;;;;;18.60;40.80;;;;;;490871;240;1245;-54
2020/12/09 11:52:27;;;;;;;;;;;18.60;40.80;;;;;;490958;240;2458;-52
2020/12/09 11:54:29;;;;;;;;;;;18.60;40.80;;;;;;490988;240;1080;-54
2020/12/09 11:56:30;;;;;;;;;;;18.60;40.80;;;;;;491178;240;1196;-54
2020/12/09 11:58:31;;;;;;;;;;;18.60;39.50;;;;;;491000;240;1299;-53
2020/12/09 12:00:32;;;;;;;;;;;18.60;40.80;;;;;;490748;240;1170;-53
2020/12/09 12:02:34;;;;;;;;;;;18.60;40.80;;;;;;490782;240;1461;-54